Time;durP1;ratioP1;P1;durP2;ratioP2;P2;SDS_P1;SDS_P2;PMS_P1;PMS_P2;Temp;Humidity;BMP_temperature;BMP_pressure;BME280_temperature;BME280_humidity;BME280_pressure;Samples;Min_cycle;Max_cycle;Signal;HPM_P1;HPM_P2
2023/10/29 00:31:18;;;;;;;4.55;1.80;;;;;;;;;;5008819;28;20100;-64
2023/10/29 00:34:46;;;;;;;6.22;2.10;;;;;;;;;;4987642;28;20051;-63
2023/10/29 01:06:24;;;;;;;3.55;1.85;;;;;;;;;;4996402;22;20064;-75
2023/10/29 01:08:50;;;;;;;5.27;2.40;;;;;;;;;;5019207;28;20042;-75
2023/10/29 01:11:15;;;;;;;7.28;2.17;;;;;;;;;;5018182;28;20312;-76
2023/10/29 01:13:41;;;;;;;4.32;1.75;;;;;;;;;;5016470;28;20041;-75
2023/10/29 01:16:06;;;;;;;3.03;1.57;;;;;;;;;;5017491;28;20034;-76
2023/10/29 01:18:32;;;;;;;3.83;2.00;;;;;;;;;;5017593;28;20410;-75
2023/10/29 01:20:57;;;;;;;3.70;1.85;;;;;;;;;;4993830;28;20037;-76
2023/10/29 01:26:35;;;;;;;3.53;1.90;;;;;;;;;;5016767;28;20046;-59
2023/10/29 01:29:03;;;;;;;3.53;1.83;;;;;;;;;;5030986;28;20505;-59
2023/10/29 01:31:29;;;;;;;4.85;2.10;;;;;;;;;;5030322;28;20104;-59
2023/10/29 01:33:54;;;;;;;3.95;1.75;;;;;;;;;;5030033;28;20121;-59
2023/10/29 01:36:20;;;;;;;3.72;1.88;;;;;;;;;;5012294;28;20049;-60
2023/10/29 01:38:45;;;;;;;3.80;1.95;;;;;;;;;;5477242;22;20042;-72
2023/10/29 01:41:11;;;;;;;4.57;2.10;;;;;;;;;;5017820;28;20033;-72
2023/10/29 01:43:36;;;;;;;7.97;1.85;;;;;;;;;;5009034;28;20111;-72
2023/10/29 01:46:01;;;;;;;3.80;2.03;;;;;;;;;;5019965;28;20519;-73
2023/10/29 01:48:27;;;;;;;4.13;1.73;;;;;;;;;;5017033;28;20048;-72
2023/10/29 01:50:52;;;;;;;3.75;1.65;;;;;;;;;;5021808;28;20075;-74
2023/10/29 01:53:17;;;;;;;4.35;2.00;;;;;;;;;;5022924;28;20033;-73
2023/10/29 01:55:43;;;;;;;5.50;2.08;;;;;;;;;;5023788;28;20100;-72
2023/10/29 01:58:08;;;;;;;3.83;2.10;;;;;;;;;;5022883;28;20040;-72
2023/10/29 02:00:33;;;;;;;4.17;1.90;;;;;;;;;;5021651;28;20288;-72
2023/10/29 02:02:58;;;;;;;3.50;1.83;;;;;;;;;;5006923;28;20046;-72
2023/10/29 02:05:24;;;;;;;4.40;2.17;;;;;;;;;;5000100;28;20034;-72
2023/10/29 02:07:49;;;;;;;3.60;2.00;;;;;;;;;;5010992;28;20042;-72
2023/10/29 02:10:14;;;;;;;4.00;1.95;;;;;;;;;;5005959;28;20788;-73
2023/10/29 02:12:40;;;;;;;4.90;1.98;;;;;;;;;;5005238;28;20563;-72
2023/10/29 02:15:05;;;;;;;6.17;2.23;;;;;;;;;;4988844;28;20064;-72
2023/10/29 02:17:30;;;;;;;4.07;2.05;;;;;;;;;;5025769;28;20290;-72
2023/10/29 02:19:56;;;;;;;3.08;1.80;;;;;;;;;;4989120;28;20037;-72
2023/10/29 02:22:22;;;;;;;5.55;1.95;;;;;;;;;;5009912;28;20065;-72
2023/10/29 02:24:47;;;;;;;3.80;1.83;;;;;;;;;;5007195;28;20044;-73
2023/10/29 02:27:12;;;;;;;3.57;1.73;;;;;;;;;;5022629;28;20034;-72
2023/10/29 02:29:38;;;;;;;3.60;1.97;;;;;;;;;;5025838;28;20071;-72
2023/10/29 02:32:03;;;;;;;4.37;2.00;;;;;;;;;;5022417;28;20280;-72
2023/10/29 02:34:28;;;;;;;4.55;1.90;;;;;;;;;;5015521;28;20100;-72
2023/10/29 02:36:53;;;;;;;4.50;1.80;;;;;;;;;;5001472;28;20110;-72
2023/10/29 02:39:19;;;;;;;4.53;2.00;;;;;;;;;;5009357;28;20038;-73
2023/10/29 02:41:44;;;;;;;4.13;1.70;;;;;;;;;;5024805;28;20486;-73
2023/10/29 02:44:09;;;;;;;4.80;2.27;;;;;;;;;;5026975;28;20292;-73
2023/10/29 02:46:35;;;;;;;4.60;2.30;;;;;;;;;;5022274;28;20103;-73
2023/10/29 02:49:00;;;;;;;4.63;2.20;;;;;;;;;;5021389;28;20456;-73
2023/10/29 02:51:25;;;;;;;4.10;2.08;;;;;;;;;;5008116;28;20025;-73
2023/10/29 02:53:51;;;;;;;4.67;1.77;;;;;;;;;;5020585;28;20567;-73
2023/10/29 02:56:16;;;;;;;4.57;2.03;;;;;;;;;;5026591;28;20473;-73
2023/10/29 02:58:41;;;;;;;5.17;2.20;;;;;;;;;;5009452;28;20414;-73
2023/10/29 03:01:07;;;;;;;3.60;1.80;;;;;;;;;;5012090;28;20351;-73
2023/10/29 03:03:32;;;;;;;4.35;2.38;;;;;;;;;;5009358;28;20041;-73
2023/10/29 03:05:58;;;;;;;3.80;2.10;;;;;;;;;;5009096;28;20037;-73
2023/10/29 03:08:23;;;;;;;4.23;2.20;;;;;;;;;;5025531;28;20037;-73
2023/10/29 03:10:49;;;;;;;5.15;2.13;;;;;;;;;;5007605;28;20038;-73
2023/10/29 03:13:15;;;;;;;3.42;2.10;;;;;;;;;;5012545;28;20045;-73
2023/10/29 03:15:40;;;;;;;3.17;1.83;;;;;;;;;;5024383;28;20486;-73
2023/10/29 03:18:05;;;;;;;4.07;1.90;;;;;;;;;;5023901;28;20160;-73
2023/10/29 03:20:30;;;;;;;4.37;2.20;;;;;;;;;;5021328;28;20044;-73
2023/10/29 03:22:56;;;;;;;4.00;1.88;;;;;;;;;;5023648;28;20292;-73
2023/10/29 03:25:21;;;;;;;4.38;1.95;;;;;;;;;;5019107;28;20144;-73
2023/10/29 03:27:46;;;;;;;3.40;2.13;;;;;;;;;;5022876;28;20045;-73
2023/10/29 03:30:11;;;;;;;5.17;2.03;;;;;;;;;;4991941;28;20029;-73
2023/10/29 03:32:37;;;;;;;6.55;2.42;;;;;;;;;;5005057;28;20056;-73
2023/10/29 03:35:02;;;;;;;4.23;2.30;;;;;;;;;;5015255;28;20045;-73
2023/10/29 03:37:27;;;;;;;4.03;1.80;;;;;;;;;;5024523;28;20283;-73
2023/10/29 03:39:53;;;;;;;3.97;2.10;;;;;;;;;;5017369;28;20038;-74
2023/10/29 03:42:18;;;;;;;5.38;2.47;;;;;;;;;;5024231;28;20311;-73
2023/10/29 03:44:43;;;;;;;3.95;1.80;;;;;;;;;;5025510;28;20128;-74
2023/10/29 03:47:08;;;;;;;6.03;2.20;;;;;;;;;;5027083;28;20053;-72
2023/10/29 03:49:34;;;;;;;7.47;2.10;;;;;;;;;;5010011;28;20030;-73
2023/10/29 03:51:59;;;;;;;4.10;2.17;;;;;;;;;;5008378;28;20072;-73
2023/10/29 03:54:24;;;;;;;4.77;2.20;;;;;;;;;;5018710;28;20296;-73
2023/10/29 03:56:49;;;;;;;4.93;2.03;;;;;;;;;;5007673;28;20284;-73
2023/10/29 03:59:15;;;;;;;5.67;2.40;;;;;;;;;;5024433;28;20041;-72
2023/10/29 04:01:40;;;;;;;4.53;1.80;;;;;;;;;;5019795;28;20411;-71
2023/10/29 04:04:05;;;;;;;3.30;1.90;;;;;;;;;;5006652;28;20187;-72
2023/10/29 04:06:31;;;;;;;3.25;1.92;;;;;;;;;;5007285;28;20053;-73
2023/10/29 04:08:56;;;;;;;4.55;2.25;;;;;;;;;;5006155;28;20795;-74
2023/10/29 04:11:21;;;;;;;3.78;2.03;;;;;;;;;;5004243;28;20045;-75
2023/10/29 04:13:47;;;;;;;4.97;2.27;;;;;;;;;;5023444;28;20033;-72
2023/10/29 04:16:13;;;;;;;5.20;2.30;;;;;;;;;;5006677;28;20723;-74
2023/10/29 04:18:38;;;;;;;3.10;2.00;;;;;;;;;;5025627;28;20048;-74
2023/10/29 04:21:06;;;;;;;3.67;2.07;;;;;;;;;;5019989;28;20049;-75
2023/10/29 04:23:31;;;;;;;3.70;2.00;;;;;;;;;;5000779;28;20315;-73
2023/10/29 04:25:56;;;;;;;4.67;2.13;;;;;;;;;;5006396;28;20030;-73
2023/10/29 04:28:21;;;;;;;4.43;2.03;;;;;;;;;;5018951;28;20272;-73
2023/10/29 04:30:48;;;;;;;4.00;2.00;;;;;;;;;;5024310;28;20033;-73
2023/10/29 04:38:23;;;;;;;4.55;2.17;;;;;;;;;;5062971;23;20052;-76
2023/10/29 04:40:51;;;;;;;3.73;1.70;;;;;;;;;;5010299;28;20045;-83
2023/10/29 04:43:16;;;;;;;4.20;2.10;;;;;;;;;;5009477;28;20311;-81
2023/10/29 04:45:41;;;;;;;3.60;1.90;;;;;;;;;;5028407;28;20037;-81
2023/10/29 04:48:06;;;;;;;3.60;1.90;;;;;;;;;;5002980;28;20033;-85
2023/10/29 04:50:32;;;;;;;4.03;1.92;;;;;;;;;;5029538;28;20080;-91
2023/10/29 04:52:57;;;;;;;4.60;1.90;;;;;;;;;;5027118;28;20093;-91
2023/10/29 04:55:23;;;;;;;4.03;1.77;;;;;;;;;;5033841;28;20276;-91
2023/10/29 04:57:48;;;;;;;4.35;2.25;;;;;;;;;;5027691;28;20474;-86
2023/10/29 05:00:14;;;;;;;4.43;2.27;;;;;;;;;;5027799;28;20041;-81
2023/10/29 05:02:39;;;;;;;4.65;2.08;;;;;;;;;;5027433;28;20312;-83
2023/10/29 05:05:06;;;;;;;5.43;1.98;;;;;;;;;;5024185;28;20029;-86
2023/10/29 05:07:33;;;;;;;5.82;2.30;;;;;;;;;;5010355;28;20316;-84
2023/10/29 05:09:58;;;;;;;4.97;2.00;;;;;;;;;;5006342;28;20048;-87
2023/10/29 05:12:32;;;;;;;4.13;2.00;;;;;;;;;;5029219;28;20037;-84
2023/10/29 05:14:58;;;;;;;3.17;1.80;;;;;;;;;;4991800;28;20550;-79
2023/10/29 05:17:23;;;;;;;4.05;1.90;;;;;;;;;;5012192;28;20041;-76
2023/10/29 05:19:48;;;;;;;3.77;2.10;;;;;;;;;;5015702;28;20135;-77
2023/10/29 05:22:13;;;;;;;3.87;1.90;;;;;;;;;;5014120;28;20042;-76
2023/10/29 05:24:39;;;;;;;7.37;2.83;;;;;;;;;;5012364;28;20074;-77
2023/10/29 05:27:04;;;;;;;3.40;2.10;;;;;;;;;;5012841;28;20883;-77
2023/10/29 05:29:31;;;;;;;4.32;2.10;;;;;;;;;;4996339;28;20362;-75
2023/10/29 05:31:56;;;;;;;3.55;1.90;;;;;;;;;;5013811;28;20038;-76
2023/10/29 05:34:21;;;;;;;3.22;1.90;;;;;;;;;;4995434;28;20049;-74
2023/10/29 05:36:47;;;;;;;5.33;2.20;;;;;;;;;;5012592;28;20448;-76
2023/10/29 05:39:14;;;;;;;5.70;2.30;;;;;;;;;;5014659;28;20288;-75
2023/10/29 05:41:39;;;;;;;3.80;1.92;;;;;;;;;;5012819;28;20041;-74
2023/10/29 05:44:05;;;;;;;5.00;2.10;;;;;;;;;;5015163;28;20064;-75
2023/10/29 05:46:30;;;;;;;3.55;1.92;;;;;;;;;;5001742;28;20037;-73
2023/10/29 05:48:55;;;;;;;5.53;2.20;;;;;;;;;;5013036;28;20571;-75
2023/10/29 05:51:21;;;;;;;4.40;2.10;;;;;;;;;;5015145;28;20053;-76
2023/10/29 05:53:47;;;;;;;4.25;2.00;;;;;;;;;;5005779;28;20289;-75
2023/10/29 05:56:12;;;;;;;3.47;1.80;;;;;;;;;;5014284;28;20068;-75
2023/10/29 05:58:38;;;;;;;3.28;2.13;;;;;;;;;;5015462;28;20080;-75
2023/10/29 06:01:03;;;;;;;4.68;2.00;;;;;;;;;;5016982;28;20562;-75
2023/10/29 06:03:28;;;;;;;3.88;2.22;;;;;;;;;;5000000;28;20041;-77
2023/10/29 06:05:54;;;;;;;3.37;2.00;;;;;;;;;;5004290;28;20269;-75
2023/10/29 06:08:21;;;;;;;5.10;1.98;;;;;;;;;;5000053;28;20116;-75
2023/10/29 06:10:46;;;;;;;5.50;2.17;;;;;;;;;;5018008;28;20026;-77
2023/10/29 06:13:12;;;;;;;3.50;2.10;;;;;;;;;;5018914;28;20029;-77
2023/10/29 06:15:37;;;;;;;4.83;2.23;;;;;;;;;;4999483;28;20111;-78
2023/10/29 06:18:04;;;;;;;3.57;2.00;;;;;;;;;;5019555;28;20029;-78
2023/10/29 06:20:29;;;;;;;3.15;1.73;;;;;;;;;;5017446;28;20040;-78
2023/10/29 06:22:55;;;;;;;5.18;2.10;;;;;;;;;;5004840;28;20029;-77
2023/10/29 06:25:20;;;;;;;5.03;2.20;;;;;;;;;;5005398;28;20034;-78
2023/10/29 06:27:45;;;;;;;4.13;2.00;;;;;;;;;;5018145;28;20029;-77
2023/10/29 06:30:14;;;;;;;4.40;2.10;;;;;;;;;;5017223;28;20115;-78
2023/10/29 06:32:39;;;;;;;4.20;1.92;;;;;;;;;;5018120;28;20340;-79
2023/10/29 06:35:05;;;;;;;6.10;2.20;;;;;;;;;;5019363;28;20511;-78
2023/10/29 06:37:31;;;;;;;4.03;1.80;;;;;;;;;;5000705;28;20033;-76
2023/10/29 06:39:56;;;;;;;4.10;2.03;;;;;;;;;;5015585;28;20063;-74
2023/10/29 06:42:21;;;;;;;4.32;1.92;;;;;;;;;;5015953;28;20756;-75
2023/10/29 06:44:46;;;;;;;4.72;2.20;;;;;;;;;;5017154;28;20088;-77
2023/10/29 06:47:13;;;;;;;5.30;2.17;;;;;;;;;;5018187;28;20054;-77
2023/10/29 06:49:39;;;;;;;3.53;2.03;;;;;;;;;;5017349;28;20050;-76
2023/10/29 06:52:04;;;;;;;5.10;2.08;;;;;;;;;;5015959;28;20038;-76
2023/10/29 06:54:30;;;;;;;5.65;2.10;;;;;;;;;;4997490;28;20116;-75
2023/10/29 06:56:56;;;;;;;4.55;1.95;;;;;;;;;;5010873;28;20073;-76
2023/10/29 06:59:21;;;;;;;5.20;2.08;;;;;;;;;;5017365;28;20087;-76
2023/10/29 07:01:50;;;;;;;3.88;2.10;;;;;;;;;;5015760;28;20075;-77
2023/10/29 07:04:15;;;;;;;6.47;2.40;;;;;;;;;;5018570;28;20061;-75
2023/10/29 07:06:40;;;;;;;7.90;2.00;;;;;;;;;;4999366;28;20149;-78
2023/10/29 07:09:06;;;;;;;4.50;2.28;;;;;;;;;;5018644;28;20266;-77
2023/10/29 07:11:31;;;;;;;7.03;2.03;;;;;;;;;;5016114;28;20053;-77
2023/10/29 07:13:56;;;;;;;4.43;2.33;;;;;;;;;;5019653;28;20054;-82
2023/10/29 07:16:22;;;;;;;7.47;2.25;;;;;;;;;;5020358;28;20364;-80
2023/10/29 07:18:47;;;;;;;5.80;2.00;;;;;;;;;;5006604;28;20038;-77
2023/10/29 07:21:14;;;;;;;10.15;2.28;;;;;;;;;;5016956;28;20415;-76
2023/10/29 07:23:39;;;;;;;7.72;2.40;;;;;;;;;;5022508;28;20050;-77
2023/10/29 07:26:05;;;;;;;6.47;2.20;;;;;;;;;;5016677;28;20416;-77
2023/10/29 07:28:30;;;;;;;4.25;2.30;;;;;;;;;;5018244;28;20296;-77
2023/10/29 07:30:55;;;;;;;10.20;2.40;;;;;;;;;;5015102;28;20163;-77
2023/10/29 07:33:21;;;;;;;7.10;2.40;;;;;;;;;;5021300;28;20038;-77
2023/10/29 07:35:46;;;;;;;7.93;2.67;;;;;;;;;;5020115;28;20053;-78
2023/10/29 07:38:11;;;;;;;7.57;2.33;;;;;;;;;;5018176;28;20555;-77
2023/10/29 07:40:37;;;;;;;5.40;2.03;;;;;;;;;;5020128;28;20300;-77
2023/10/29 07:43:03;;;;;;;6.90;2.58;;;;;;;;;;5017198;28;20046;-78
2023/10/29 07:45:28;;;;;;;3.70;1.88;;;;;;;;;;5018363;28;20100;-78
2023/10/29 07:47:54;;;;;;;5.10;2.13;;;;;;;;;;5017940;28;20456;-79
2023/10/29 07:50:21;;;;;;;6.22;2.00;;;;;;;;;;4996420;28;20124;-78
2023/10/29 07:52:47;;;;;;;8.15;2.35;;;;;;;;;;5013359;28;20044;-80
2023/10/29 07:55:12;;;;;;;6.10;2.15;;;;;;;;;;5020519;28;20033;-78
2023/10/29 07:57:40;;;;;;;4.87;2.03;;;;;;;;;;5018349;28;20429;-78
2023/10/29 08:00:15;;;;;;;7.25;2.40;;;;;;;;;;5019808;28;20042;-77
2023/10/29 08:02:43;;;;;;;5.70;2.30;;;;;;;;;;5017502;28;20060;-77
2023/10/29 08:05:11;;;;;;;4.53;1.98;;;;;;;;;;5016741;28;20049;-79
2023/10/29 08:07:37;;;;;;;5.10;2.05;;;;;;;;;;5017279;28;20041;-77
2023/10/29 08:10:02;;;;;;;5.38;2.22;;;;;;;;;;5006846;28;20029;-77
2023/10/29 08:12:29;;;;;;;7.25;2.10;;;;;;;;;;5016793;28;20038;-77
2023/10/29 08:14:54;;;;;;;4.28;1.98;;;;;;;;;;4997661;28;20038;-78
2023/10/29 08:17:21;;;;;;;5.50;1.73;;;;;;;;;;5014977;28;20167;-77
2023/10/29 08:19:46;;;;;;;5.28;2.10;;;;;;;;;;5016449;28;20041;-76
2023/10/29 08:22:11;;;;;;;4.35;2.00;;;;;;;;;;4996538;28;20424;-77
2023/10/29 08:24:37;;;;;;;5.10;2.50;;;;;;;;;;4997234;28;20049;-79
2023/10/29 08:27:02;;;;;;;7.25;2.70;;;;;;;;;;5003765;28;20838;-77
2023/10/29 08:29:27;;;;;;;4.80;2.28;;;;;;;;;;4987065;28;20154;-78
2023/10/29 08:31:53;;;;;;;5.43;2.10;;;;;;;;;;5013131;28;20092;-78
2023/10/29 08:34:18;;;;;;;5.93;2.23;;;;;;;;;;5014886;28;20123;-77
2023/10/29 08:36:43;;;;;;;7.07;2.10;;;;;;;;;;5015063;28;20072;-77
2023/10/29 08:39:09;;;;;;;4.17;2.07;;;;;;;;;;4990854;28;20030;-78
2023/10/29 08:41:34;;;;;;;5.22;2.03;;;;;;;;;;5009349;28;20040;-77
2023/10/29 08:43:59;;;;;;;7.10;2.00;;;;;;;;;;5019573;28;20052;-79
2023/10/29 08:46:25;;;;;;;3.20;1.70;;;;;;;;;;4999331;28;20560;-77
2023/10/29 08:48:51;;;;;;;4.15;2.00;;;;;;;;;;5014376;28;20323;-78
2023/10/29 08:51:16;;;;;;;5.07;2.15;;;;;;;;;;5004915;28;20044;-79
2023/10/29 08:53:41;;;;;;;6.17;2.07;;;;;;;;;;5009398;28;20045;-78
2023/10/29 08:56:07;;;;;;;6.50;2.30;;;;;;;;;;5000791;28;20139;-78
2023/10/29 08:58:32;;;;;;;4.07;2.22;;;;;;;;;;5008999;28;20041;-78
2023/10/29 09:00:57;;;;;;;5.32;2.20;;;;;;;;;;5021172;28;20037;-79
2023/10/29 09:03:23;;;;;;;5.32;1.90;;;;;;;;;;4991638;28;20068;-79
2023/10/29 09:05:48;;;;;;;3.92;1.95;;;;;;;;;;5019541;28;20150;-78
2023/10/29 09:08:14;;;;;;;4.40;1.73;;;;;;;;;;4992593;28;20192;-79
2023/10/29 09:10:42;;;;;;;4.37;2.20;;;;;;;;;;5011152;28;20136;-79
2023/10/29 09:13:08;;;;;;;6.50;2.22;;;;;;;;;;5004788;28;20147;-78
2023/10/29 09:15:33;;;;;;;3.38;1.70;;;;;;;;;;4989317;28;20085;-78
2023/10/29 09:17:58;;;;;;;4.27;2.17;;;;;;;;;;5011175;28;20396;-76
2023/10/29 09:20:23;;;;;;;4.47;1.93;;;;;;;;;;5016128;28;20029;-78
2023/10/29 09:22:49;;;;;;;4.17;2.27;;;;;;;;;;5024118;28;20322;-78
2023/10/29 09:25:14;;;;;;;5.28;2.15;;;;;;;;;;5022960;28;20065;-78
2023/10/29 09:27:41;;;;;;;3.65;1.90;;;;;;;;;;5021739;28;20017;-78
2023/10/29 09:30:06;;;;;;;4.35;2.20;;;;;;;;;;5016509;28;20380;-79
2023/10/29 09:32:34;;;;;;;5.30;2.10;;;;;;;;;;5021352;28;20049;-78
2023/10/29 09:34:59;;;;;;;5.78;1.90;;;;;;;;;;5011112;28;20104;-78
2023/10/29 09:37:24;;;;;;;5.40;1.90;;;;;;;;;;5021838;28;20621;-79
2023/10/29 09:39:50;;;;;;;5.63;2.10;;;;;;;;;;5016688;28;20283;-79
2023/10/29 09:42:17;;;;;;;4.70;2.22;;;;;;;;;;5014512;28;20270;-79
2023/10/29 09:44:43;;;;;;;3.45;1.60;;;;;;;;;;5018233;28;20048;-77
2023/10/29 09:47:11;;;;;;;5.07;2.20;;;;;;;;;;5023294;28;20029;-78
2023/10/29 09:49:37;;;;;;;3.88;1.90;;;;;;;;;;5021684;28;20623;-77
2023/10/29 09:52:02;;;;;;;4.45;1.85;;;;;;;;;;5012344;28;20056;-80
2023/10/29 09:54:28;;;;;;;3.97;1.85;;;;;;;;;;5013385;28;20018;-78
2023/10/29 09:56:53;;;;;;;5.22;1.77;;;;;;;;;;5020064;28;20041;-78
2023/10/29 09:59:19;;;;;;;4.35;2.00;;;;;;;;;;5012407;28;20022;-81
2023/10/29 10:01:44;;;;;;;4.77;1.87;;;;;;;;;;4999487;28;20114;-80
2023/10/29 10:04:09;;;;;;;5.57;1.80;;;;;;;;;;5011974;28;20364;-79
2023/10/29 10:06:34;;;;;;;6.60;1.83;;;;;;;;;;5012516;28;20116;-78
2023/10/29 10:09:00;;;;;;;6.60;1.92;;;;;;;;;;4997357;28;20073;-83
2023/10/29 10:11:25;;;;;;;5.80;2.00;;;;;;;;;;5016256;28;20041;-78
2023/10/29 10:13:50;;;;;;;3.63;1.80;;;;;;;;;;4988073;28;20117;-78
2023/10/29 10:16:16;;;;;;;5.13;1.60;;;;;;;;;;4989270;28;20041;-80
2023/10/29 10:18:51;;;;;;;6.10;1.77;;;;;;;;;;4999104;28;20081;-79
2023/10/29 10:21:17;;;;;;;8.45;1.92;;;;;;;;;;4984818;28;20030;-78
2023/10/29 10:23:45;;;;;;;5.90;1.48;;;;;;;;;;5024288;28;20046;-79
2023/10/29 10:26:10;;;;;;;6.05;1.77;;;;;;;;;;5022905;28;20026;-78
2023/10/29 10:28:36;;;;;;;6.30;1.67;;;;;;;;;;5021107;28;20056;-79
2023/10/29 10:31:08;;;;;;;7.30;1.50;;;;;;;;;;4985789;28;20119;-81
2023/10/29 10:33:33;;;;;;;4.68;1.75;;;;;;;;;;5003421;28;20026;-79
2023/10/29 10:35:58;;;;;;;6.03;1.80;;;;;;;;;;5011040;28;20034;-80
2023/10/29 10:38:24;;;;;;;8.25;2.17;;;;;;;;;;5011942;28;20344;-79
2023/10/29 10:41:01;;;;;;;5.18;2.08;;;;;;;;;;5022796;28;20022;-81
2023/10/29 10:43:27;;;;;;;6.50;2.03;;;;;;;;;;5016725;28;20475;-80
2023/10/29 10:45:52;;;;;;;7.57;2.05;;;;;;;;;;5029915;28;20029;-80
2023/10/29 10:48:18;;;;;;;6.33;2.03;;;;;;;;;;5023597;28;20045;-81
2023/10/29 10:50:46;;;;;;;5.47;2.00;;;;;;;;;;5021476;28;20291;-81
2023/10/29 10:53:11;;;;;;;7.68;2.20;;;;;;;;;;5006519;28;20018;-82
2023/10/29 10:55:37;;;;;;;7.13;1.92;;;;;;;;;;5028256;28;20095;-81
2023/10/29 10:58:03;;;;;;;6.07;1.85;;;;;;;;;;5030005;28;20029;-80
2023/10/29 11:00:30;;;;;;;7.03;2.20;;;;;;;;;;5006636;28;20029;-82
2023/10/29 11:02:57;;;;;;;4.32;1.55;;;;;;;;;;5024745;28;20041;-80
2023/10/29 11:05:22;;;;;;;5.15;1.48;;;;;;;;;;5012162;28;20032;-82
2023/10/29 11:07:47;;;;;;;8.07;2.00;;;;;;;;;;5030897;28;20105;-80
2023/10/29 11:10:13;;;;;;;7.43;1.80;;;;;;;;;;5022721;28;20033;-81
2023/10/29 11:12:38;;;;;;;6.50;1.80;;;;;;;;;;5025854;28;20045;-78
2023/10/29 11:15:16;;;;;;;5.72;1.65;;;;;;;;;;5010510;28;20046;-84
2023/10/29 11:17:51;;;;;;;5.78;1.65;;;;;;;;;;5031685;28;20030;-79
2023/10/29 11:20:36;;;;;;;5.20;1.83;;;;;;;;;;5032150;28;20103;-84
2023/10/29 11:23:14;;;;;;;4.07;1.20;;;;;;;;;;5018770;28;20060;-79
2023/10/29 11:25:40;;;;;;;5.40;1.60;;;;;;;;;;5008253;28;20054;-81
2023/10/29 11:28:38;;;;;;;3.85;1.40;;;;;;;;;;5008709;28;20066;-76
2023/10/29 11:31:10;;;;;;;4.07;1.30;;;;;;;;;;4966270;28;20034;-86
2023/10/29 11:33:35;;;;;;;5.93;1.38;;;;;;;;;;5008219;28;20041;-85
2023/10/29 11:36:37;;;;;;;4.18;1.60;;;;;;;;;;5026519;28;20134;-77
2023/10/29 11:39:22;;;;;;;2.65;1.10;;;;;;;;;;4940206;29;20049;-80
2023/10/29 11:41:48;;;;;;;5.38;1.50;;;;;;;;;;5015357;28;20042;-78
2023/10/29 11:44:28;;;;;;;3.88;1.10;;;;;;;;;;5023977;28;20049;-77
2023/10/29 11:47:02;;;;;;;4.20;1.08;;;;;;;;;;5010426;28;20031;-78
2023/10/29 11:49:28;;;;;;;5.40;1.35;;;;;;;;;;5020195;28;20041;-77
2023/10/29 11:51:57;;;;;;;3.63;1.20;;;;;;;;;;5013689;28;20034;-79
2023/10/29 11:54:23;;;;;;;3.65;1.13;;;;;;;;;;5010529;28;20030;-78
2023/10/29 11:56:48;;;;;;;4.22;1.30;;;;;;;;;;5016265;28;20400;-78
2023/10/29 11:59:14;;;;;;;5.13;1.35;;;;;;;;;;5021596;28;20041;-77
2023/10/29 12:01:39;;;;;;;2.87;0.97;;;;;;;;;;5007502;28;20029;-79
2023/10/29 12:04:04;;;;;;;4.53;0.93;;;;;;;;;;5009458;28;20045;-80
2023/10/29 12:06:40;;;;;;;4.80;1.10;;;;;;;;;;5020208;28;20116;-78
2023/10/29 12:09:21;;;;;;;3.15;1.17;;;;;;;;;;5023115;28;20044;-77
2023/10/29 12:11:49;;;;;;;3.65;1.00;;;;;;;;;;5012922;28;20026;-80
2023/10/29 12:14:14;;;;;;;3.58;1.10;;;;;;;;;;5022123;28;20032;-78
2023/10/29 12:16:39;;;;;;;3.33;0.85;;;;;;;;;;5006189;28;20450;-78
2023/10/29 12:19:05;;;;;;;4.75;0.98;;;;;;;;;;5025303;28;20033;-78
2023/10/29 12:21:30;;;;;;;5.55;1.00;;;;;;;;;;5019608;28;20042;-78
2023/10/29 12:23:57;;;;;;;4.60;0.73;;;;;;;;;;5012602;28;20044;-78
2023/10/29 12:26:22;;;;;;;3.33;1.20;;;;;;;;;;5006127;28;20033;-79
2023/10/29 12:28:49;;;;;;;4.70;1.07;;;;;;;;;;4994884;28;20044;-77
2023/10/29 12:31:24;;;;;;;3.80;0.93;;;;;;;;;;5003222;28;20034;-77
2023/10/29 12:33:56;;;;;;;4.07;0.95;;;;;;;;;;5017029;28;20053;-78
2023/10/29 12:36:23;;;;;;;3.38;0.90;;;;;;;;;;5022092;28;20014;-78
2023/10/29 12:38:48;;;;;;;3.63;1.20;;;;;;;;;;5028542;28;20087;-77
2023/10/29 12:41:18;;;;;;;2.33;0.95;;;;;;;;;;5018431;28;20025;-77
2023/10/29 12:43:44;;;;;;;2.83;0.90;;;;;;;;;;5020861;28;20042;-78
2023/10/29 12:46:13;;;;;;;2.33;0.60;;;;;;;;;;5022285;28;20056;-86
2023/10/29 12:48:59;;;;;;;2.00;0.63;;;;;;;;;;5025353;28;20041;-80
2023/10/29 12:51:34;;;;;;;2.67;0.63;;;;;;;;;;5006784;28;20104;-80
2023/10/29 12:54:12;;;;;;;4.30;0.73;;;;;;;;;;5020515;28;20034;-77
2023/10/29 12:57:01;;;;;;;2.78;1.00;;;;;;;;;;4997674;28;20033;-78
2023/10/29 12:59:32;;;;;;;4.68;0.80;;;;;;;;;;5009355;28;20044;-79
2023/10/29 13:02:09;;;;;;;2.20;0.80;;;;;;;;;;5024908;28;20037;-77
2023/10/29 13:04:35;;;;;;;3.38;0.80;;;;;;;;;;5015875;28;20041;-79
2023/10/29 13:07:13;;;;;;;1.88;0.60;;;;;;;;;;5022958;28;20037;-79
2023/10/29 13:09:40;;;;;;;3.03;0.70;;;;;;;;;;5016383;28;20057;-78
2023/10/29 13:12:10;;;;;;;2.55;0.73;;;;;;;;;;5009525;28;20029;-79
2023/10/29 13:14:36;;;;;;;3.42;0.88;;;;;;;;;;5013045;28;20056;-78
2023/10/29 13:17:02;;;;;;;2.67;0.70;;;;;;;;;;5018722;28;20077;-77
2023/10/29 13:19:27;;;;;;;4.70;0.80;;;;;;;;;;5007527;28;20099;-78
2023/10/29 13:21:52;;;;;;;2.55;0.68;;;;;;;;;;4999034;28;20048;-78
2023/10/29 13:24:19;;;;;;;2.47;0.80;;;;;;;;;;5005844;28;20074;-77
2023/10/29 13:26:44;;;;;;;2.05;0.50;;;;;;;;;;5027034;28;20300;-80
2023/10/29 13:29:10;;;;;;;1.95;0.63;;;;;;;;;;5020096;28;20080;-81
2023/10/29 13:31:35;;;;;;;3.30;0.63;;;;;;;;;;5019228;28;20028;-81
2023/10/29 13:34:00;;;;;;;2.23;0.60;;;;;;;;;;5019521;28;20839;-79
2023/10/29 13:36:28;;;;;;;1.57;0.70;;;;;;;;;;5003234;28;20042;-78
2023/10/29 13:38:53;;;;;;;3.15;0.95;;;;;;;;;;5022589;28;20117;-79
2023/10/29 13:41:18;;;;;;;4.72;0.93;;;;;;;;;;5016959;28;20124;-81
2023/10/29 13:43:43;;;;;;;4.18;1.00;;;;;;;;;;5018526;28;20472;-79
2023/10/29 13:46:09;;;;;;;3.50;0.70;;;;;;;;;;5019308;28;20111;-78
2023/10/29 13:48:34;;;;;;;4.40;0.90;;;;;;;;;;5015976;28;20079;-81
2023/10/29 13:51:04;;;;;;;4.18;0.93;;;;;;;;;;5025026;28;20111;-80
2023/10/29 13:53:29;;;;;;;3.40;0.90;;;;;;;;;;5024040;28;20029;-80
2023/10/29 13:55:54;;;;;;;2.30;0.77;;;;;;;;;;5005043;28;20025;-77
2023/10/29 13:58:21;;;;;;;3.13;0.90;;;;;;;;;;5003296;28;20269;-78
2023/10/29 14:00:46;;;;;;;1.58;0.60;;;;;;;;;;5023191;28;20025;-78
2023/10/29 14:03:11;;;;;;;4.53;0.50;;;;;;;;;;5016804;28;20029;-79
2023/10/29 14:05:37;;;;;;;2.27;0.80;;;;;;;;;;5013830;28;20264;-80
2023/10/29 14:08:03;;;;;;;2.10;0.80;;;;;;;;;;5024449;28;20072;-81
2023/10/29 14:10:28;;;;;;;1.85;0.70;;;;;;;;;;5020323;28;20026;-80
2023/10/29 14:12:53;;;;;;;4.37;0.80;;;;;;;;;;5020288;28;20034;-75
2023/10/29 14:15:19;;;;;;;4.15;1.00;;;;;;;;;;5007495;28;20037;-78
2023/10/29 14:17:44;;;;;;;2.55;0.85;;;;;;;;;;5020915;28;20021;-78
2023/10/29 14:20:09;;;;;;;3.53;0.90;;;;;;;;;;5006911;28;20037;-77
2023/10/29 14:22:35;;;;;;;3.90;1.05;;;;;;;;;;5028241;28;20005;-77
2023/10/29 14:25:02;;;;;;;2.55;0.85;;;;;;;;;;5009977;28;20108;-79
2023/10/29 14:27:27;;;;;;;3.17;0.80;;;;;;;;;;5008317;28;20029;-78
2023/10/29 14:29:52;;;;;;;3.55;0.93;;;;;;;;;;5031720;28;20530;-79
2023/10/29 14:32:18;;;;;;;5.17;1.30;;;;;;;;;;5008126;28;20033;-78
2023/10/29 14:34:43;;;;;;;3.80;1.30;;;;;;;;;;5025882;28;20359;-75
2023/10/29 14:37:09;;;;;;;6.35;3.28;;;;;;;;;;5017595;28;20037;-82
2023/10/29 14:39:35;;;;;;;15.10;9.50;;;;;;;;;;5011341;28;20024;-77
2023/10/29 14:42:00;;;;;;;4.22;2.22;;;;;;;;;;5021862;28;20013;-78
2023/10/29 14:44:25;;;;;;;4.40;1.70;;;;;;;;;;5000821;28;20125;-76
2023/10/29 14:46:50;;;;;;;3.53;1.10;;;;;;;;;;5015572;28;20264;-79
2023/10/29 14:49:16;;;;;;;3.80;1.23;;;;;;;;;;5025897;28;20452;-79
2023/10/29 14:51:41;;;;;;;4.15;1.02;;;;;;;;;;5027974;28;20096;-83
2023/10/29 14:54:07;;;;;;;2.53;0.90;;;;;;;;;;5029615;28;20029;-84
2023/10/29 14:56:32;;;;;;;2.42;0.95;;;;;;;;;;5029058;28;20351;-77
2023/10/29 14:58:57;;;;;;;2.22;1.02;;;;;;;;;;5028090;28;20412;-77
2023/10/29 15:01:22;;;;;;;2.47;1.13;;;;;;;;;;5027943;28;20796;-77
2023/10/29 15:03:48;;;;;;;3.53;1.07;;;;;;;;;;5024219;28;20041;-79
2023/10/29 15:06:13;;;;;;;3.73;1.10;;;;;;;;;;5025502;28;20025;-80
2023/10/29 15:08:39;;;;;;;5.18;1.40;;;;;;;;;;5010686;28;20064;-84
2023/10/29 15:11:06;;;;;;;5.07;1.15;;;;;;;;;;5019757;28;20045;-81
2023/10/29 15:13:32;;;;;;;5.15;1.65;;;;;;;;;;5010320;28;20030;-80
2023/10/29 15:15:57;;;;;;;5.00;1.77;;;;;;;;;;5015452;28;20103;-82
2023/10/29 15:18:22;;;;;;;6.93;1.57;;;;;;;;;;5028143;28;20433;-78
2023/10/29 15:20:48;;;;;;;6.20;1.40;;;;;;;;;;5019262;28;20659;-80
2023/10/29 15:23:13;;;;;;;4.93;1.48;;;;;;;;;;5024242;28;20472;-79
2023/10/29 15:25:42;;;;;;;4.82;1.30;;;;;;;;;;5028608;28;20060;-78
2023/10/29 15:28:07;;;;;;;3.83;1.40;;;;;;;;;;5021497;28;20500;-81
2023/10/29 15:30:33;;;;;;;6.17;1.77;;;;;;;;;;5028320;28;20037;-81
2023/10/29 15:32:58;;;;;;;4.18;1.40;;;;;;;;;;5029880;28;20323;-80
2023/10/29 15:35:23;;;;;;;3.88;1.10;;;;;;;;;;5014029;28;20038;-81
2023/10/29 15:37:48;;;;;;;3.00;1.47;;;;;;;;;;5024849;28;20041;-82
2023/10/29 15:40:14;;;;;;;3.27;1.20;;;;;;;;;;5028747;28;20833;-78
2023/10/29 15:42:39;;;;;;;5.53;1.42;;;;;;;;;;5011042;28;20276;-77
2023/10/29 15:45:05;;;;;;;4.38;1.45;;;;;;;;;;5008804;28;20034;-80
2023/10/29 15:47:30;;;;;;;2.80;1.23;;;;;;;;;;5013317;28;20142;-84